Opasatika, Canada
Current Conditions -  °F | °C
As of 12:00 PM on Friday 28 Nov 2014 (Local Time) from CYYU Reporting Station
Few Clouds Few Clouds  
Wind Chill: -12°   Ceiling: Unl
Heat Index: -2°   Visibility: 15mi
Dew Point: -8°   Wind: 5mph
Humidity: 78%   Direction: 200°SSW
Pressure: 30.1"   Gusts: NA
Location:  49.53°N, 82.87°W
Report Text: CYYU 281700Z 20004KT 15SM FEW220 M19/M22 A3010 RMK CC1 CC TR SLP223
Loading
Personal Weather Stations






























Interactive Weather Map New forecast layout! Learn more

10-Day Weather Forecast

Advertisements
Track Severe Weather on mobile